Time;durP1;ratioP1;P1;durP2;ratioP2;P2;SDS_P1;SDS_P2;PMS_P1;PMS_P2;Temp;Humidity;BMP_temperature;BMP_pressure;BME280_temperature;BME280_humidity;BME280_pressure;Samples;Min_cycle;Max_cycle;Signal;HPM_P1;HPM_P2
2021/11/23 00:00:42;;;;;;;0.10;0.10;;;;;;;8.05;65.41;103240.66;5052858;28;20547;-85
2021/11/23 00:03:09;;;;;;;0.20;0.20;;;;;;;8.05;64.97;103230.09;5052297;28;20024;-85
2021/11/23 00:05:35;;;;;;;0.17;0.17;;;;;;;8.06;65.08;103226.63;5052816;28;20029;-85
2021/11/23 00:08:03;;;;;;;0.10;0.10;;;;;;;8.06;64.84;103231.91;5051150;28;20021;-85
2021/11/23 00:10:31;;;;;;;0.30;0.30;;;;;;;8.04;64.94;103233.63;5046364;28;20032;-85
2021/11/23 00:12:57;;;;;;;0.17;0.17;;;;;;;8.03;65.91;103230.06;5050591;28;20036;-85
2021/11/23 00:15:23;;;;;;;1.42;1.17;;;;;;;8.08;65.30;103231.09;5048489;28;20441;-85
2021/11/23 00:17:50;;;;;;;0.10;0.10;;;;;;;8.13;64.89;103222.44;5048572;28;20119;-85
2021/11/23 00:20:16;;;;;;;0.10;0.10;;;;;;;8.14;65.29;103218.91;5050577;28;20090;-86
2021/11/23 00:22:42;;;;;;;0.10;0.10;;;;;;;8.17;64.96;103230.47;5053105;28;20479;-85
2021/11/23 00:25:09;;;;;;;0.10;0.10;;;;;;;8.19;65.09;103230.53;5052562;28;20116;-85
2021/11/23 00:27:35;;;;;;;0.20;0.20;;;;;;;8.22;64.68;103227.97;5051349;28;20039;-85
2021/11/23 00:30:02;;;;;;;0.10;0.10;;;;;;;8.25;65.18;103228.06;5050660;28;20039;-85
2021/11/23 00:32:28;;;;;;;0.20;0.20;;;;;;;8.27;65.58;103228.97;5050318;28;20029;-85
2021/11/23 00:34:54;;;;;;;0.10;0.10;;;;;;;8.31;64.96;103228.25;5054075;28;20040;-86
2021/11/23 00:37:21;;;;;;;0.10;0.10;;;;;;;8.33;65.13;103225.63;5049708;28;20037;-85
2021/11/23 00:39:47;;;;;;;0.30;0.30;;;;;;;8.35;65.59;103223.91;5048146;28;20038;-85
2021/11/23 00:42:13;;;;;;;0.68;0.68;;;;;;;8.36;65.06;103231.91;5054083;28;20108;-84
2021/11/23 00:44:39;;;;;;;0.30;0.30;;;;;;;8.36;65.62;103218.69;5057347;28;20025;-86
2021/11/23 00:47:05;;;;;;;0.10;0.10;;;;;;;8.39;65.45;103231.09;5052922;28;20029;-85
2021/11/23 00:49:32;;;;;;;0.13;0.13;;;;;;;8.39;65.70;103223.16;5056481;28;20737;-86
2021/11/23 00:51:58;;;;;;;0.40;0.40;;;;;;;8.39;65.08;103231.09;5054071;28;20492;-85
2021/11/23 00:54:24;;;;;;;0.10;0.10;;;;;;;8.39;65.18;103225.78;5053625;28;20396;-85
2021/11/23 00:56:50;;;;;;;6.18;1.60;;;;;;;8.42;65.62;103228.50;5054031;28;20059;-85
2021/11/23 00:59:16;;;;;;;0.10;0.10;;;;;;;8.43;65.24;103225.91;5053850;28;20029;-85
2021/11/23 01:01:42;;;;;;;0.10;0.10;;;;;;;8.47;65.30;103236.59;5054374;28;20041;-85
2021/11/23 01:04:09;;;;;;;0.10;0.10;;;;;;;8.48;65.46;103225.19;5055381;28;20064;-85
2021/11/23 01:06:35;;;;;;;0.10;0.10;;;;;;;8.49;65.60;103227.88;5053750;28;20388;-85
2021/11/23 01:09:01;;;;;;;0.32;0.32;;;;;;;8.54;64.88;103226.22;5055124;28;20488;-85
2021/11/23 01:11:27;;;;;;;0.10;0.10;;;;;;;8.56;64.90;103219.25;5055156;28;20037;-85
2021/11/23 01:13:54;;;;;;;1.48;0.73;;;;;;;8.59;64.88;103218.44;5055457;28;20087;-85
2021/11/23 01:16:20;;;;;;;0.40;0.40;;;;;;;8.59;65.08;103218.44;5050641;28;20067;-85
2021/11/23 01:18:47;;;;;;;0.50;0.50;;;;;;;8.61;65.04;103214.09;5056065;28;20029;-86
2021/11/23 01:21:15;;;;;;;0.13;0.13;;;;;;;8.63;65.27;103211.50;5056336;28;20031;-85
2021/11/23 01:23:42;;;;;;;2.35;1.98;;;;;;;8.66;65.24;103209.81;5055794;28;20037;-84
2021/11/23 01:26:08;;;;;;;0.10;0.10;;;;;;;8.70;65.07;103206.41;5056663;28;20040;-85
2021/11/23 01:28:35;;;;;;;0.10;0.10;;;;;;;8.71;64.98;103202.91;5051462;28;20025;-84
2021/11/23 01:31:09;;;;;;;0.10;0.10;;;;;;;8.79;64.90;103204.84;5053598;28;20036;-85
2021/11/23 01:33:36;;;;;;;0.17;0.17;;;;;;;8.79;65.38;103212.78;5054524;28;20029;-85
2021/11/23 01:36:03;;;;;;;0.10;0.10;;;;;;;8.84;64.84;103216.44;5057629;28;20443;-85
2021/11/23 01:38:31;;;;;;;0.10;0.10;;;;;;;8.54;65.91;103217.44;5058031;28;20029;-85
2021/11/23 01:40:58;;;;;;;0.43;0.43;;;;;;;8.52;66.34;103211.19;5056747;28;20032;-85
2021/11/23 01:43:25;;;;;;;0.35;0.35;;;;;;;8.52;66.08;103213.84;5056738;28;20033;-85
2021/11/23 01:45:51;;;;;;;0.20;0.20;;;;;;;8.53;66.25;103210.34;5058202;28;20032;-85
2021/11/23 01:48:17;;;;;;;0.20;0.20;;;;;;;8.56;66.69;103208.69;5056270;28;20392;-85
2021/11/23 01:50:44;;;;;;;0.15;0.15;;;;;;;8.57;66.37;103196.34;5053959;28;20033;-85
2021/11/23 01:53:10;;;;;;;0.40;0.40;;;;;;;8.60;66.44;103208.75;5056173;28;20029;-85
2021/11/23 01:55:40;;;;;;;0.68;0.68;;;;;;;8.63;66.74;103203.56;5054539;28;20051;-85
2021/11/23 01:58:09;;;;;;;0.10;0.10;;;;;;;8.66;66.58;103203.63;5053276;28;20107;-85
2021/11/23 02:00:36;;;;;;;0.10;0.10;;;;;;;8.67;66.33;103203.69;5052393;28;20472;-84
2021/11/23 02:03:03;;;;;;;0.10;0.10;;;;;;;8.70;66.39;103208.16;5053705;28;20446;-85
2021/11/23 02:05:29;;;;;;;0.17;0.17;;;;;;;8.70;66.71;103209.03;5054668;28;20047;-85
2021/11/23 02:07:56;;;;;;;0.10;0.10;;;;;;;8.70;66.61;103205.50;5054734;28;20067;-85
2021/11/23 02:10:23;;;;;;;0.10;0.10;;;;;;;8.71;66.30;103200.25;5055300;28;20041;-85
2021/11/23 02:12:49;;;;;;;0.10;0.10;;;;;;;8.77;66.16;103193.34;5054809;28;20111;-85
2021/11/23 02:15:16;;;;;;;0.10;0.10;;;;;;;8.78;66.69;103195.13;5054195;28;20095;-85
2021/11/23 02:17:44;;;;;;;0.10;0.10;;;;;;;8.80;67.00;103196.97;5055790;28;20029;-84
2021/11/23 02:20:12;;;;;;;2.65;1.77;;;;;;;8.86;66.34;103196.19;5054913;28;20052;-85
2021/11/23 02:22:39;;;;;;;0.50;0.50;;;;;;;8.87;66.68;103198.00;5055856;28;20079;-85
2021/11/23 02:25:07;;;;;;;0.10;0.10;;;;;;;8.91;66.59;103189.31;5055750;28;20388;-85
2021/11/23 02:27:34;;;;;;;0.17;0.17;;;;;;;8.95;66.32;103191.16;5055433;28;20035;-85
2021/11/23 02:30:00;;;;;;;0.40;0.40;;;;;;;9.01;66.22;103200.97;5055895;28;20097;-85
2021/11/23 02:32:35;;;;;;;0.17;0.17;;;;;;;9.01;66.64;103191.31;5056356;28;20033;-86
2021/11/23 02:35:02;;;;;;;0.10;0.10;;;;;;;9.09;66.18;103187.97;5051058;28;20033;-85
2021/11/23 02:37:28;;;;;;;0.10;0.10;;;;;;;9.14;66.41;103191.59;5052168;28;20051;-85
2021/11/23 02:39:54;;;;;;;0.30;0.30;;;;;;;9.18;66.25;103188.16;5054963;28;20063;-86
2021/11/23 02:42:20;;;;;;;0.10;0.10;;;;;;;9.23;66.11;103189.16;5055891;28;20059;-86
2021/11/23 02:44:46;;;;;;;0.10;0.10;;;;;;;9.22;66.31;103183.00;5057686;28;20055;-85
2021/11/23 02:47:12;;;;;;;0.32;0.32;;;;;;;9.25;66.34;103178.63;5053344;28;21234;-86
2021/11/23 02:49:39;;;;;;;0.20;0.20;;;;;;;9.28;66.46;103173.41;5051716;28;20488;-86
2021/11/23 02:52:08;;;;;;;0.10;0.10;;;;;;;9.29;66.22;103176.06;5052677;28;20033;-86
2021/11/23 02:54:36;;;;;;;0.93;0.93;;;;;;;9.28;66.85;103169.00;5054775;28;20063;-86
2021/11/23 02:57:03;;;;;;;0.20;0.20;;;;;;;9.34;66.72;103166.50;5055286;28;20057;-85
2021/11/23 02:59:29;;;;;;;0.15;0.15;;;;;;;9.39;66.54;103162.22;5052198;28;20033;-86
2021/11/23 03:01:55;;;;;;;0.10;0.10;;;;;;;9.43;66.42;103167.56;5050318;28;20043;-86
2021/11/23 03:04:21;;;;;;;0.20;0.20;;;;;;;9.48;66.14;103163.25;5052909;28;20040;-85
2021/11/23 03:06:48;;;;;;;0.10;0.10;;;;;;;9.49;66.58;103158.00;5053332;28;20025;-85
2021/11/23 03:09:14;;;;;;;0.10;0.10;;;;;;;9.52;66.50;103157.16;5052982;28;20054;-85
2021/11/23 03:11:40;;;;;;;0.45;0.45;;;;;;;9.52;66.08;103150.13;5055986;28;20044;-85
2021/11/23 03:14:06;;;;;;;0.10;0.10;;;;;;;9.58;66.58;103152.00;5052489;28;20037;-85
2021/11/23 03:16:33;;;;;;;0.10;0.10;;;;;;;9.59;66.36;103143.22;5054818;28;20028;-85
2021/11/23 03:18:59;;;;;;;0.10;0.10;;;;;;;9.62;66.16;103143.28;5052483;28;20037;-85
2021/11/23 03:21:25;;;;;;;0.25;0.25;;;;;;;9.60;66.27;103139.72;5051594;28;20446;-85
2021/11/23 03:23:51;;;;;;;0.15;0.15;;;;;;;9.63;66.36;103145.09;5053030;28;20124;-85
2021/11/23 03:26:17;;;;;;;0.10;0.10;;;;;;;9.69;66.28;103141.66;5054404;28;20083;-85
2021/11/23 03:28:44;;;;;;;0.20;0.20;;;;;;;9.70;66.22;103140.78;5046202;28;20021;-84
2021/11/23 03:31:10;;;;;;;0.10;0.10;;;;;;;9.73;66.07;103142.59;5050564;28;20542;-84
2021/11/23 03:33:36;;;;;;;0.10;0.10;;;;;;;9.75;66.29;103143.53;5056285;28;20108;-86
2021/11/23 03:36:02;;;;;;;0.13;0.13;;;;;;;9.76;65.90;103145.31;5050968;28;20040;-85
2021/11/23 03:38:29;;;;;;;0.10;0.10;;;;;;;9.79;66.00;103148.03;5055371;28;20111;-86
2021/11/23 03:40:55;;;;;;;0.10;0.10;;;;;;;9.81;66.01;103148.97;5053345;28;20081;-85
2021/11/23 03:43:21;;;;;;;0.20;0.20;;;;;;;9.80;66.37;103144.53;5054035;28;20107;-85
2021/11/23 03:45:47;;;;;;;0.10;0.10;;;;;;;9.80;66.44;103147.19;5050312;28;21325;-85
2021/11/23 03:48:13;;;;;;;0.10;0.10;;;;;;;9.83;66.38;103152.53;5048115;28;20064;-85
2021/11/23 03:50:40;;;;;;;0.00;0.00;;;;;;;9.82;66.43;103140.13;5051286;28;20055;-85
2021/11/23 03:53:06;;;;;;;0.10;0.10;;;;;;;9.85;66.46;103137.56;5052203;28;20090;-85
2021/11/23 03:55:34;;;;;;;0.10;0.10;;;;;;;9.91;66.17;103144.75;5054803;28;20033;-85
2021/11/23 03:58:02;;;;;;;0.10;0.10;;;;;;;9.92;66.36;103141.22;5055146;28;20473;-85
2021/11/23 04:00:28;;;;;;;0.10;0.10;;;;;;;9.95;65.98;103138.63;5052468;28;20044;-85
2021/11/23 04:02:54;;;;;;;0.10;0.10;;;;;;;9.98;65.84;103136.94;5055683;28;20051;-85
2021/11/23 04:05:21;;;;;;;0.10;0.10;;;;;;;9.97;65.87;103135.16;5051019;28;20128;-85
2021/11/23 04:07:48;;;;;;;0.10;0.10;;;;;;;10.00;65.94;103140.50;5056396;28;20028;-85
2021/11/23 04:10:17;;;;;;;0.10;0.10;;;;;;;10.03;66.08;103132.63;5054792;28;20036;-85
2021/11/23 04:12:46;;;;;;;0.10;0.10;;;;;;;10.06;66.20;103137.09;5058457;28;20112;-85
2021/11/23 04:15:12;;;;;;;0.63;0.63;;;;;;;10.09;65.97;103139.78;5056444;28;20064;-85
2021/11/23 04:17:39;;;;;;;0.10;0.10;;;;;;;10.11;66.03;103142.47;5052999;28;20535;-84
2021/11/23 04:20:06;;;;;;;0.10;0.10;;;;;;;10.11;65.94;103145.13;5058486;28;20047;-85
2021/11/23 04:22:33;;;;;;;0.10;0.10;;;;;;;10.14;66.06;103147.81;5053281;28;20036;-84
2021/11/23 04:24:59;;;;;;;0.10;0.10;;;;;;;10.15;65.97;103144.31;5052073;28;20043;-85
2021/11/23 04:27:27;;;;;;;0.10;0.10;;;;;;;10.15;65.75;103137.25;5052662;28;20090;-85
2021/11/23 04:29:53;;;;;;;0.10;0.10;;;;;;;10.14;65.82;103147.81;5048542;28;20059;-85
2021/11/23 04:32:19;;;;;;;0.10;0.10;;;;;;;10.17;66.04;103135.53;5058888;28;20028;-86
2021/11/23 04:34:46;;;;;;;0.20;0.20;;;;;;;10.17;66.18;103132.88;5059739;28;20033;-85
2021/11/23 04:37:14;;;;;;;0.10;0.10;;;;;;;10.18;65.74;103137.31;5052045;28;20396;-84
2021/11/23 04:39:41;;;;;;;0.10;0.10;;;;;;;10.19;65.80;103130.25;5058008;28;20077;-85
2021/11/23 04:42:07;;;;;;;0.10;0.10;;;;;;;10.18;66.09;103134.69;5057666;28;20471;-85
2021/11/23 04:44:33;;;;;;;0.10;0.10;;;;;;;10.22;65.88;103130.31;5055000;28;20025;-85
2021/11/23 04:46:59;;;;;;;0.10;0.10;;;;;;;10.24;65.89;103139.16;5051405;28;20446;-85
2021/11/23 04:49:26;;;;;;;0.10;0.10;;;;;;;10.24;65.75;103125.94;5055150;28;20084;-86
2021/11/23 04:51:52;;;;;;;0.10;0.10;;;;;;;10.24;65.78;103133.88;5053538;28;20037;-86
2021/11/23 04:54:18;;;;;;;0.10;0.10;;;;;;;10.25;65.95;103130.38;5052381;28;20391;-86
2021/11/23 04:56:44;;;;;;;0.10;0.10;;;;;;;10.25;65.93;103130.38;5061926;28;20407;-86
2021/11/23 04:59:10;;;;;;;0.43;0.43;;;;;;;10.23;66.52;103132.13;5054413;28;20071;-86
2021/11/23 05:01:38;;;;;;;0.10;0.10;;;;;;;10.22;66.70;103125.03;5062167;28;20032;-86
2021/11/23 05:04:04;;;;;;;0.22;0.20;;;;;;;10.23;66.40;103124.16;5058268;28;20191;-86
2021/11/23 05:06:30;;;;;;;0.10;0.10;;;;;;;10.23;66.61;103123.25;5051349;28;20100;-86
2021/11/23 05:08:57;;;;;;;0.10;0.10;;;;;;;10.22;66.44;103122.38;5051297;28;20108;-86
2021/11/23 05:11:27;;;;;;;0.20;0.20;;;;;;;10.21;66.98;103123.25;5051021;28;20033;-86
2021/11/23 05:13:53;;;;;;;0.10;0.10;;;;;;;10.21;66.97;103117.94;5051321;28;20377;-86
2021/11/23 05:16:19;;;;;;;0.20;0.20;;;;;;;10.22;66.74;103117.09;5050247;28;20115;-86
2021/11/23 05:18:45;;;;;;;0.13;0.13;;;;;;;10.20;67.05;103117.06;5051549;28;20079;-86
2021/11/23 05:21:11;;;;;;;0.10;0.10;;;;;;;10.21;66.84;103117.94;5057698;28;20423;-86
2021/11/23 05:23:38;;;;;;;0.10;0.10;;;;;;;10.21;66.99;103117.94;5052720;28;20035;-84
2021/11/23 05:26:04;;;;;;;0.20;0.20;;;;;;;10.21;66.81;103123.25;5055244;28;20048;-84
2021/11/23 05:28:30;;;;;;;0.10;0.10;;;;;;;10.21;67.06;103123.25;5059408;28;20084;-87
2021/11/23 05:30:56;;;;;;;2.10;1.98;;;;;;;10.21;66.81;103120.59;5057717;28;20541;-85
2021/11/23 05:33:22;;;;;;;0.10;0.10;;;;;;;10.21;67.28;103117.94;5051687;28;20037;-85
2021/11/23 05:35:50;;;;;;;0.10;0.10;;;;;;;10.23;67.05;103115.31;5058705;28;20492;-85
2021/11/23 05:38:18;;;;;;;0.22;0.22;;;;;;;10.20;67.19;103117.06;5053635;28;20120;-85
2021/11/23 05:40:45;;;;;;;0.10;0.10;;;;;;;10.19;67.36;103109.97;5061193;28;20032;-84
2021/11/23 05:43:13;;;;;;;0.20;0.20;;;;;;;10.19;67.40;103109.06;5051780;28;20037;-85
2021/11/23 05:45:40;;;;;;;0.10;0.10;;;;;;;10.16;67.61;103112.53;5063505;28;20036;-85
2021/11/23 05:48:07;;;;;;;0.10;0.10;;;;;;;10.17;67.55;103110.81;5062245;28;20036;-85
2021/11/23 05:50:34;;;;;;;0.20;0.20;;;;;;;10.14;67.22;103108.09;5049109;28;20037;-84
2021/11/23 05:53:01;;;;;;;0.13;0.13;;;;;;;10.09;67.97;103109.75;5051890;28;20021;-84
2021/11/23 05:55:29;;;;;;;0.10;0.10;;;;;;;10.09;67.84;103109.75;5055388;28;20029;-84
2021/11/23 05:57:55;;;;;;;0.10;0.10;;;;;;;10.08;67.67;103110.63;5063165;28;20071;-84
2021/11/23 06:00:21;;;;;;;0.10;0.10;;;;;;;10.09;67.50;103112.41;5065411;28;20025;-84
2021/11/23 06:02:48;;;;;;;0.00;0.00;;;;;;;10.06;67.77;103113.25;5055747;28;20029;-84
2021/11/23 06:05:14;;;;;;;0.10;0.10;;;;;;;10.09;67.83;103112.41;5056669;28;20029;-85
2021/11/23 06:07:40;;;;;;;0.10;0.10;;;;;;;10.11;68.09;103111.56;5056095;28;20069;-84
2021/11/23 06:10:07;;;;;;;0.10;0.10;;;;;;;10.15;67.87;103107.22;5062961;28;20052;-85
2021/11/23 06:12:33;;;;;;;0.10;0.10;;;;;;;10.17;68.13;103119.63;5062974;28;20108;-84
2021/11/23 06:15:00;;;;;;;0.10;0.10;;;;;;;10.20;67.77;103111.75;5055953;28;20037;-85
2021/11/23 06:17:28;;;;;;;0.10;0.10;;;;;;;10.22;68.48;103109.13;5054895;28;20021;-85
2021/11/23 06:19:54;;;;;;;0.10;0.10;;;;;;;10.26;68.19;103112.72;5052329;28;20453;-85
2021/11/23 06:22:22;;;;;;;0.10;0.10;;;;;;;10.27;68.14;103110.09;5062693;28;20039;-86
2021/11/23 06:24:48;;;;;;;0.10;0.10;;;;;;;10.29;68.11;103115.41;5059729;28;20043;-85
2021/11/23 06:27:14;;;;;;;0.10;0.10;;;;;;;10.31;68.25;103111.06;5057868;28;20064;-85
2021/11/23 06:29:40;;;;;;;0.10;0.10;;;;;;;10.34;68.10;103119.94;5055819;28;20530;-85
2021/11/23 06:32:07;;;;;;;0.10;0.10;;;;;;;10.29;69.05;103116.34;5057424;28;20496;-86
2021/11/23 06:34:33;;;;;;;0.30;0.30;;;;;;;10.32;68.33;103126.09;5050708;28;20033;-86
2021/11/23 06:37:00;;;;;;;0.10;0.10;;;;;;;10.32;68.48;103121.66;5055813;28;20124;-85
2021/11/23 06:39:27;;;;;;;0.10;0.10;;;;;;;10.34;68.32;103125.25;5052857;28;20029;-85
2021/11/23 06:41:53;;;;;;;0.10;0.10;;;;;;;10.35;68.80;103129.69;5053361;28;20120;-86
2021/11/23 06:44:19;;;;;;;0.10;0.10;;;;;;;10.41;68.25;103128.03;5056223;28;20476;-86
2021/11/23 06:47:15;;;;;;;0.10;0.10;;;;;;;10.44;68.30;103134.28;5052273;28;20021;-85
2021/11/23 06:49:41;;;;;;;0.10;0.10;;;;;;;10.46;68.79;103137.84;5038708;28;20037;-86
2021/11/23 06:52:08;;;;;;;0.10;0.10;;;;;;;10.50;68.99;103141.44;5050681;28;20041;-86
2021/11/23 06:54:34;;;;;;;0.10;0.10;;;;;;;10.52;68.86;103140.59;5053856;28;20493;-86
2021/11/23 06:57:00;;;;;;;0.10;0.10;;;;;;;10.57;68.81;103147.75;5049880;28;20028;-85
2021/11/23 06:59:26;;;;;;;0.10;0.10;;;;;;;10.59;68.47;103138.97;5055923;28;20510;-85
2021/11/23 07:01:53;;;;;;;0.10;0.10;;;;;;;10.63;68.54;103138.13;5053816;28;20443;-85
2021/11/23 07:04:19;;;;;;;0.10;0.10;;;;;;;10.66;68.58;103143.47;5041013;28;20053;-85
2021/11/23 07:06:48;;;;;;;0.30;0.30;;;;;;;10.68;68.19;103139.09;5057551;28;20487;-85
2021/11/23 07:09:14;;;;;;;0.10;0.10;;;;;;;10.71;69.04;103145.34;5052479;28;20082;-84
2021/11/23 07:11:54;;;;;;;0.10;0.10;;;;;;;10.80;68.40;103148.13;5055983;28;20479;-85
2021/11/23 07:14:20;;;;;;;0.10;0.10;;;;;;;10.77;68.71;103153.38;5050262;28;20388;-84
2021/11/23 07:16:47;;;;;;;0.10;0.10;;;;;;;10.78;68.71;103161.34;5058815;28;20033;-86
2021/11/23 07:19:14;;;;;;;0.10;0.10;;;;;;;10.81;69.10;103165.81;5057240;28;20056;-86
2021/11/23 07:21:41;;;;;;;0.08;0.08;;;;;;;10.83;68.69;103166.75;5063522;28;20078;-86
2021/11/23 07:24:08;;;;;;;0.10;0.10;;;;;;;10.84;68.78;103168.50;5059741;28;20052;-86
2021/11/23 07:26:37;;;;;;;0.10;0.10;;;;;;;10.83;68.73;103158.78;5057672;28;20485;-86
2021/11/23 07:29:04;;;;;;;0.10;0.10;;;;;;;10.83;68.21;103169.41;5052138;28;20033;-86
2021/11/23 07:31:30;;;;;;;0.10;0.10;;;;;;;10.80;68.71;103159.63;5055537;28;20044;-86
2021/11/23 07:33:58;;;;;;;0.10;0.10;;;;;;;10.81;68.53;103157.88;5053324;28;20057;-85
2021/11/23 07:36:25;;;;;;;0.10;0.10;;;;;;;10.81;68.62;103164.03;5054886;28;20093;-86
2021/11/23 07:38:55;;;;;;;0.10;0.10;;;;;;;10.83;68.98;103167.63;5051993;28;20028;-87
2021/11/23 07:41:21;;;;;;;0.10;0.10;;;;;;;10.83;68.89;103177.34;5052360;28;20029;-86
2021/11/23 07:43:47;;;;;;;0.10;0.10;;;;;;;10.84;68.55;103172.06;5052945;28;20029;-86
2021/11/23 07:46:15;;;;;;;0.10;0.10;;;;;;;10.86;68.26;103161.47;5051669;28;20021;-85
2021/11/23 07:48:42;;;;;;;0.10;0.10;;;;;;;10.87;68.75;103163.28;5052967;28;20021;-85
2021/11/23 07:51:08;;;;;;;0.10;0.10;;;;;;;10.90;68.64;103168.59;5049278;28;20032;-86
2021/11/23 07:53:34;;;;;;;0.10;0.10;;;;;;;10.93;68.58;103175.72;5049099;28;20037;-87
2021/11/23 07:56:00;;;;;;;0.10;0.10;;;;;;;10.95;68.96;103179.28;5046909;28;20043;-86
2021/11/23 07:58:27;;;;;;;0.20;0.20;;;;;;;10.93;68.84;103173.97;5052581;28;20029;-87
2021/11/23 08:00:53;;;;;;;0.10;0.10;;;;;;;10.92;68.90;103177.50;5053082;28;20051;-85
2021/11/23 08:03:19;;;;;;;0.08;0.08;;;;;;;10.91;69.17;103181.00;5052661;28;20023;-87
2021/11/23 08:05:45;;;;;;;0.10;0.10;;;;;;;10.92;68.76;103179.25;5049329;28;20488;-85
2021/11/23 08:08:13;;;;;;;0.10;0.10;;;;;;;10.91;68.69;103186.31;5053325;28;20112;-85
2021/11/23 08:10:40;;;;;;;0.85;0.85;;;;;;;10.94;68.93;103183.72;5050600;28;20029;-88
2021/11/23 08:13:06;;;;;;;0.20;0.20;;;;;;;10.92;68.78;103188.09;5048196;28;20021;-86
2021/11/23 08:15:36;;;;;;;0.10;0.10;;;;;;;10.93;68.85;103189.88;5052568;28;20037;-86
2021/11/23 08:18:05;;;;;;;5.57;2.08;;;;;;;10.98;68.81;103201.47;5051875;28;20550;-85
2021/11/23 08:20:31;;;;;;;0.10;0.10;;;;;;;10.98;68.63;103192.63;5052734;28;20029;-85
2021/11/23 08:22:58;;;;;;;0.10;0.10;;;;;;;10.97;68.92;103197.03;5053474;28;20163;-87
2021/11/23 08:25:24;;;;;;;0.10;0.10;;;;;;;11.04;68.82;103202.44;5054345;28;20376;-87
2021/11/23 08:27:51;;;;;;;0.10;0.10;;;;;;;11.11;68.72;103196.34;5044021;28;20028;-87
2021/11/23 08:30:17;;;;;;;0.10;0.10;;;;;;;11.14;68.67;103202.59;5053671;28;20108;-87
2021/11/23 08:32:44;;;;;;;0.40;0.40;;;;;;;11.18;68.69;103206.19;5049451;28;20021;-88
2021/11/23 08:35:10;;;;;;;0.35;0.35;;;;;;;11.20;68.42;103204.44;5062927;28;20021;-87
2021/11/23 08:37:36;;;;;;;0.10;0.10;;;;;;;11.26;69.04;103203.66;5056683;28;20138;-85
2021/11/23 08:40:04;;;;;;;0.13;0.13;;;;;;;11.31;68.79;103197.56;5042731;28;20041;-87
2021/11/23 08:42:30;;;;;;;0.17;0.17;;;;;;;11.39;68.84;103207.38;5054101;28;20109;-87
2021/11/23 08:44:57;;;;;;;0.28;0.28;;;;;;;11.44;68.61;103203.03;5055664;28;20128;-86
2021/11/23 08:47:24;;;;;;;0.10;0.10;;;;;;;11.46;68.66;103201.28;5063643;28;20139;-86
2021/11/23 08:49:51;;;;;;;0.30;0.30;;;;;;;11.51;68.83;103211.97;5054955;28;20055;-87
2021/11/23 08:52:18;;;;;;;0.10;0.10;;;;;;;11.57;68.46;103209.41;5061083;28;20057;-90
2021/11/23 08:54:45;;;;;;;0.13;0.13;;;;;;;11.61;68.91;103211.22;5056628;28;20071;-88
2021/11/23 08:57:12;;;;;;;0.10;0.10;;;;;;;11.65;68.53;103203.34;5052065;28;20025;-86
2021/11/23 08:59:42;;;;;;;0.10;0.10;;;;;;;11.71;68.98;103206.94;5051661;28;20131;-89
2021/11/23 09:02:08;;;;;;;0.10;0.10;;;;;;;11.77;68.74;103204.38;5045464;28;20545;-90
2021/11/23 09:04:35;;;;;;;0.10;0.10;;;;;;;11.80;68.53;103201.72;5048712;28;20059;-87
2021/11/23 09:07:04;;;;;;;0.10;0.10;;;;;;;11.81;68.82;103204.44;5051163;28;20021;-92
2021/11/23 09:09:31;;;;;;;0.10;0.10;;;;;;;11.81;68.46;103198.22;5046742;28;20025;-92
2021/11/23 09:12:01;;;;;;;0.10;0.10;;;;;;;11.82;68.49;103207.97;5056543;28;20407;-94
2021/11/23 09:14:28;;;;;;;0.10;0.10;;;;;;;11.82;68.89;103210.63;5057156;28;20093;-86
2021/11/23 09:16:56;;;;;;;0.10;0.10;;;;;;;11.84;68.40;103213.28;5056158;28;20055;-88
2021/11/23 09:19:22;;;;;;;0.10;0.10;;;;;;;11.86;68.64;103212.44;5059212;28;20036;-90
2021/11/23 09:21:48;;;;;;;0.10;0.10;;;;;;;11.89;68.60;103216.94;5054380;28;20045;-90
2021/11/23 09:24:14;;;;;;;0.10;0.10;;;;;;;11.92;68.64;103215.16;5062287;28;20147;-89
2021/11/23 09:26:41;;;;;;;0.10;0.10;;;;;;;11.95;68.96;103220.53;5053488;28;20086;-91
2021/11/23 09:29:07;;;;;;;0.30;0.30;;;;;;;11.97;68.95;103221.50;5054492;28;20361;-89
2021/11/23 09:31:33;;;;;;;0.10;0.10;;;;;;;12.01;69.34;103221.50;5056813;28;20033;-93
2021/11/23 09:34:00;;;;;;;0.10;0.10;;;;;;;12.05;69.00;103223.31;5046700;28;20078;-87
2021/11/23 09:36:26;;;;;;;0.10;0.10;;;;;;;12.10;69.15;103227.84;5052114;28;20523;-90
2021/11/23 09:38:52;;;;;;;0.20;0.20;;;;;;;12.14;69.24;103219.00;5047466;28;20117;-89
2021/11/23 09:41:18;;;;;;;0.10;0.10;;;;;;;12.22;68.58;103219.09;5051094;28;20484;-83
2021/11/23 09:43:44;;;;;;;0.10;0.10;;;;;;;12.27;69.32;103224.47;5055219;28;20032;-93
2021/11/23 09:46:11;;;;;;;0.10;0.10;;;;;;;12.29;68.72;103225.41;5052627;28;20033;-92
2021/11/23 09:48:43;;;;;;;0.10;0.10;;;;;;;12.35;68.66;103224.56;5052595;28;20510;-95
2021/11/23 09:51:23;;;;;;;0.13;0.13;;;;;;;12.40;68.51;103230.81;5051250;28;20049;-92
2021/11/23 09:53:50;;;;;;;0.10;0.10;;;;;;;12.43;69.21;103226.41;5061705;28;20037;-91
2021/11/23 09:56:16;;;;;;;0.10;0.10;;;;;;;12.51;69.10;103215.88;5050550;28;20079;-91
2021/11/23 09:58:42;;;;;;;0.10;0.10;;;;;;;12.57;68.54;103215.94;5050867;28;20504;-93
2021/11/23 10:01:11;;;;;;;0.10;0.10;;;;;;;12.67;68.43;103229.31;5052961;28;20045;-84
2021/11/23 10:03:38;;;;;;;0.10;0.10;;;;;;;12.73;68.37;103232.03;5053295;28;20487;-89
2021/11/23 10:06:24;;;;;;;0.10;0.10;;;;;;;12.87;68.62;103222.41;5053302;28;20144;-82
2021/11/23 10:08:54;;;;;;;0.10;0.10;;;;;;;12.89;67.88;103223.31;5058686;28;20128;-91
2021/11/23 10:11:35;;;;;;;0.10;0.10;;;;;;;13.00;67.58;103219.88;5053377;28;20044;-90
2021/11/23 10:14:08;;;;;;;0.60;0.60;;;;;;;13.06;67.70;103222.53;5053588;28;20041;-90
2021/11/23 10:16:41;;;;;;;0.10;0.10;;;;;;;13.42;66.42;103210.41;5052384;28;20040;-90
2021/11/23 10:19:10;;;;;;;0.10;0.10;;;;;;;13.45;66.14;103210.44;5053504;28;20033;-87
2021/11/23 10:21:46;;;;;;;0.10;0.10;;;;;;;13.53;65.86;103206.06;5053295;28;20028;-90
2021/11/23 10:24:13;;;;;;;0.00;0.00;;;;;;;13.58;65.87;103209.63;5053617;28;20025;-89
2021/11/23 10:26:39;;;;;;;0.10;0.10;;;;;;;13.64;65.68;103205.22;5044608;28;20041;-91
2021/11/23 10:29:08;;;;;;;0.10;0.10;;;;;;;13.68;65.31;103205.25;5053557;28;20029;-91
2021/11/23 10:31:41;;;;;;;0.10;0.10;;;;;;;13.74;65.58;103207.03;5053411;28;20433;-90
2021/11/23 10:34:12;;;;;;;0.10;0.10;;;;;;;13.76;65.26;103210.59;5053210;28;20040;-91
2021/11/23 10:36:41;;;;;;;0.10;0.10;;;;;;;13.78;65.15;103214.13;5053184;28;20021;-89
2021/11/23 10:41:54;;;;;;;0.08;0.08;;;;;;;13.82;64.87;103202.63;5056264;27;20448;-89
2021/11/23 10:44:26;;;;;;;0.10;0.10;;;;;;;13.86;64.97;103201.75;5047834;28;20060;-88
2021/11/23 10:46:55;;;;;;;0.10;0.10;;;;;;;13.89;65.35;103196.44;5047209;28;20029;-90
2021/11/23 10:49:43;;;;;;;0.10;0.10;;;;;;;14.00;64.93;103195.59;5049062;28;20488;-90
2021/11/23 10:52:33;;;;;;;0.10;0.10;;;;;;;14.08;64.60;103193.81;5048018;28;20018;-90
2021/11/23 10:54:59;;;;;;;0.10;0.10;;;;;;;14.07;64.93;103192.94;5050193;28;20025;-89
2021/11/23 10:57:26;;;;;;;0.10;0.10;;;;;;;14.13;64.94;103194.75;5051814;28;20025;-89
2021/11/23 10:59:52;;;;;;;0.10;0.10;;;;;;;14.17;64.89;103188.53;5052198;28;20056;-87
2021/11/23 11:02:18;;;;;;;0.10;0.10;;;;;;;14.20;64.64;103193.84;5064350;28;20116;-88
2021/11/23 11:04:45;;;;;;;0.10;0.10;;;;;;;14.23;64.31;103188.53;5062496;28;20037;-85
2021/11/23 11:07:13;;;;;;;0.30;0.30;;;;;;;14.21;63.73;103182.31;5062923;28;20028;-90
2021/11/23 11:09:40;;;;;;;0.10;0.10;;;;;;;14.27;64.32;103183.22;5067688;28;20060;-91
2021/11/23 11:12:07;;;;;;;0.20;0.20;;;;;;;14.31;63.96;103175.22;5052125;28;20068;-89
2021/11/23 11:14:36;;;;;;;0.10;0.10;;;;;;;14.28;62.88;103177.00;5050544;28;20024;-89
2021/11/23 11:17:05;;;;;;;0.10;0.10;;;;;;;14.28;62.79;103177.00;5051350;28;20067;-88
2021/11/23 11:19:50;;;;;;;0.22;0.22;;;;;;;14.34;62.95;103177.00;5049791;28;20075;-89
2021/11/23 11:22:21;;;;;;;0.10;0.10;;;;;;;14.31;63.24;103180.56;5055952;28;20121;-88
2021/11/23 11:27:39;;;;;;;0.10;0.10;;;;;;;14.29;62.74;103178.78;5077701;27;20412;-90
2021/11/23 11:35:53;;;;;;;0.10;0.10;;;;;;;14.34;62.39;103171.66;5170222;27;20388;-88
2021/11/23 11:41:38;;;;;;;0.10;0.10;;;;;;;14.51;62.21;103161.91;5078854;27;20948;-89
2021/11/23 11:44:08;;;;;;;0.10;0.10;;;;;;;14.49;62.57;103165.47;5063713;28;20047;-88